Time;durP1;ratioP1;P1;durP2;ratioP2;P2;SDS_P1;SDS_P2;PMS_P1;PMS_P2;Temp;Humidity;BMP_temperature;BMP_pressure;BME280_temperature;BME280_humidity;BME280_pressure;Samples;Min_cycle;Max_cycle;Signal;HPM_P1;HPM_P2
2021/08/18 00:00:27;;;;;;;3.55;0.80;;;;;;;;;;5007441;28;20046;-53
2021/08/18 00:02:55;;;;;;;1.98;0.80;;;;;;;;;;5012063;28;20426;-52
2021/08/18 00:05:23;;;;;;;0.93;0.70;;;;;;;;;;5008055;28;20066;-52
2021/08/18 00:07:49;;;;;;;0.75;0.75;;;;;;;;;;5006914;28;20116;-51
2021/08/18 00:10:16;;;;;;;0.80;0.80;;;;;;;;;;5008024;28;20056;-52
2021/08/18 00:12:43;;;;;;;1.35;0.70;;;;;;;;;;5009859;28;20034;-53
2021/08/18 00:15:12;;;;;;;0.80;0.80;;;;;;;;;;5008400;28;20108;-53
2021/08/18 00:17:39;;;;;;;2.70;0.82;;;;;;;;;;5010593;28;20097;-53
2021/08/18 00:20:06;;;;;;;0.80;0.80;;;;;;;;;;5008647;28;20034;-52
2021/08/18 00:22:33;;;;;;;1.05;0.70;;;;;;;;;;5012704;28;20065;-52
2021/08/18 00:25:00;;;;;;;0.65;0.65;;;;;;;;;;5009556;28;20037;-52
2021/08/18 00:27:26;;;;;;;0.80;0.80;;;;;;;;;;5010047;28;20056;-52
2021/08/18 00:29:53;;;;;;;0.70;0.70;;;;;;;;;;5006200;28;20045;-52
2021/08/18 00:32:20;;;;;;;1.52;0.70;;;;;;;;;;5004470;28;20080;-52
2021/08/18 00:34:47;;;;;;;0.73;0.73;;;;;;;;;;5013310;28;20092;-52
2021/08/18 00:37:13;;;;;;;0.80;0.80;;;;;;;;;;5010784;28;20034;-52
2021/08/18 00:39:40;;;;;;;0.70;0.70;;;;;;;;;;4994454;28;20494;-52
2021/08/18 00:42:07;;;;;;;0.80;0.80;;;;;;;;;;5004593;28;20050;-52
2021/08/18 00:44:34;;;;;;;1.77;0.90;;;;;;;;;;5000523;28;20045;-52
2021/08/18 00:47:04;;;;;;;0.77;0.70;;;;;;;;;;5007248;28;20045;-52
2021/08/18 00:49:31;;;;;;;1.15;0.90;;;;;;;;;;5008659;28;20042;-52
2021/08/18 00:51:58;;;;;;;0.70;0.70;;;;;;;;;;4998960;28;20049;-52
2021/08/18 00:54:39;;;;;;;0.70;0.70;;;;;;;;;;5009777;28;20045;-52
2021/08/18 00:57:07;;;;;;;0.80;0.80;;;;;;;;;;5009777;28;20072;-52
2021/08/18 00:59:34;;;;;;;4.30;1.20;;;;;;;;;;5011000;28;20549;-53
2021/08/18 01:02:02;;;;;;;0.70;0.70;;;;;;;;;;5008574;28;20467;-51
2021/08/18 01:04:29;;;;;;;0.95;0.70;;;;;;;;;;5010182;28;20042;-52
2021/08/18 01:06:56;;;;;;;0.73;0.70;;;;;;;;;;5009872;28;20045;-52
2021/08/18 01:09:22;;;;;;;0.80;0.80;;;;;;;;;;5007627;28;20042;-52
2021/08/18 01:11:50;;;;;;;0.73;0.73;;;;;;;;;;5008731;28;20045;-53
2021/08/18 01:14:18;;;;;;;0.70;0.70;;;;;;;;;;5009346;28;20073;-52
2021/08/18 01:16:46;;;;;;;0.70;0.70;;;;;;;;;;5006713;28;20052;-53
2021/08/18 01:19:15;;;;;;;0.80;0.80;;;;;;;;;;5003645;28;20084;-52
2021/08/18 01:21:43;;;;;;;0.70;0.70;;;;;;;;;;5008588;28;20037;-52
2021/08/18 01:24:10;;;;;;;0.80;0.80;;;;;;;;;;5008968;28;20742;-52
2021/08/18 01:26:37;;;;;;;0.93;0.80;;;;;;;;;;5010678;28;20069;-53
2021/08/18 01:29:05;;;;;;;0.80;0.80;;;;;;;;;;5008614;28;20141;-51
2021/08/18 01:31:32;;;;;;;0.80;0.80;;;;;;;;;;5011035;28;20030;-52
2021/08/18 01:34:00;;;;;;;1.50;0.70;;;;;;;;;;5008374;28;20053;-52
2021/08/18 01:36:28;;;;;;;1.00;0.82;;;;;;;;;;4997727;28;20107;-52
2021/08/18 01:38:59;;;;;;;1.38;0.80;;;;;;;;;;5010911;28;20402;-52
2021/08/18 01:41:26;;;;;;;3.90;0.90;;;;;;;;;;5009221;28;20096;-52
2021/08/18 01:43:52;;;;;;;1.95;0.88;;;;;;;;;;5010448;28;20053;-51
2021/08/18 01:46:19;;;;;;;1.00;1.00;;;;;;;;;;5009145;28;20061;-53
2021/08/18 01:48:46;;;;;;;1.00;0.85;;;;;;;;;;5009618;28;20099;-52
2021/08/18 01:51:13;;;;;;;1.77;0.80;;;;;;;;;;4999485;28;20042;-52
2021/08/18 01:53:40;;;;;;;1.25;1.15;;;;;;;;;;5002942;28;20045;-53
2021/08/18 01:56:08;;;;;;;3.08;0.73;;;;;;;;;;5010366;28;20057;-53
2021/08/18 01:58:35;;;;;;;3.20;0.80;;;;;;;;;;5004766;28;20042;-52
2021/08/18 02:01:03;;;;;;;1.73;1.15;;;;;;;;;;5001778;28;20038;-53
2021/08/18 02:03:31;;;;;;;0.70;0.70;;;;;;;;;;5006628;28;20431;-53
2021/08/18 02:05:57;;;;;;;1.75;0.80;;;;;;;;;;5005641;28;20077;-52
2021/08/18 02:08:24;;;;;;;0.80;0.80;;;;;;;;;;5009197;28;20085;-52
2021/08/18 02:10:51;;;;;;;1.00;0.80;;;;;;;;;;5006356;28;20069;-52
2021/08/18 02:13:18;;;;;;;4.60;0.80;;;;;;;;;;5007460;28;20104;-52
2021/08/18 02:15:45;;;;;;;1.17;1.17;;;;;;;;;;5006678;28;20092;-52
2021/08/18 02:18:15;;;;;;;0.73;0.73;;;;;;;;;;5004362;28;20037;-53
2021/08/18 02:20:45;;;;;;;1.17;0.80;;;;;;;;;;5007800;28;20057;-53
2021/08/18 02:23:13;;;;;;;0.80;0.80;;;;;;;;;;5009421;28;20057;-54
2021/08/18 02:25:39;;;;;;;1.27;1.08;;;;;;;;;;5009459;28;20121;-53
2021/08/18 02:28:07;;;;;;;0.90;0.90;;;;;;;;;;4996082;28;20044;-53
2021/08/18 02:30:34;;;;;;;4.00;0.80;;;;;;;;;;5003973;28;20442;-53
2021/08/18 02:33:01;;;;;;;0.93;0.93;;;;;;;;;;5002097;28;20042;-51
2021/08/18 02:35:28;;;;;;;0.80;0.80;;;;;;;;;;5006583;28;20035;-53
2021/08/18 02:37:55;;;;;;;5.47;1.15;;;;;;;;;;5001854;28;20048;-53
2021/08/18 02:40:23;;;;;;;2.25;0.90;;;;;;;;;;5016282;28;20049;-53
2021/08/18 02:42:51;;;;;;;0.82;0.82;;;;;;;;;;5003908;28;20042;-53
2021/08/18 02:45:19;;;;;;;1.00;0.90;;;;;;;;;;4996041;28;20045;-54
2021/08/18 02:47:46;;;;;;;0.90;0.90;;;;;;;;;;4999631;28;20039;-53
2021/08/18 02:50:14;;;;;;;2.25;0.90;;;;;;;;;;5003445;28;20066;-53
2021/08/18 02:52:41;;;;;;;0.90;0.90;;;;;;;;;;4991596;28;20125;-54
2021/08/18 02:55:08;;;;;;;1.60;0.90;;;;;;;;;;5001389;28;20121;-53
2021/08/18 02:57:35;;;;;;;1.17;0.90;;;;;;;;;;4998386;28;20745;-53
2021/08/18 03:00:02;;;;;;;1.10;1.10;;;;;;;;;;4995765;28;20097;-52
2021/08/18 03:02:29;;;;;;;2.45;0.80;;;;;;;;;;5007174;28;20034;-54
2021/08/18 03:04:56;;;;;;;1.38;0.80;;;;;;;;;;5008494;28;20037;-54
2021/08/18 03:07:23;;;;;;;0.80;0.80;;;;;;;;;;5000997;28;20474;-53
2021/08/18 03:09:50;;;;;;;1.00;1.00;;;;;;;;;;5009620;28;20044;-53
2021/08/18 03:12:17;;;;;;;0.80;0.80;;;;;;;;;;5000327;28;20037;-53
2021/08/18 03:14:43;;;;;;;0.80;0.80;;;;;;;;;;5009299;28;20037;-53
2021/08/18 03:17:11;;;;;;;1.08;0.88;;;;;;;;;;5008063;28;20026;-53
2021/08/18 03:19:38;;;;;;;2.88;1.15;;;;;;;;;;5009520;28;20066;-53
2021/08/18 03:22:04;;;;;;;0.82;0.80;;;;;;;;;;5005242;28;20658;-53
2021/08/18 03:24:31;;;;;;;2.30;1.08;;;;;;;;;;4995575;28;20387;-53
2021/08/18 03:26:57;;;;;;;0.90;0.90;;;;;;;;;;5002857;28;20042;-53
2021/08/18 03:29:24;;;;;;;1.40;0.80;;;;;;;;;;5005444;28;20038;-53
2021/08/18 03:31:51;;;;;;;0.90;0.90;;;;;;;;;;5013657;28;20049;-53
2021/08/18 03:34:18;;;;;;;0.80;0.80;;;;;;;;;;5013022;28;20100;-52
2021/08/18 03:36:44;;;;;;;1.02;1.02;;;;;;;;;;5005560;28;20038;-53
2021/08/18 03:39:11;;;;;;;2.90;0.80;;;;;;;;;;5010860;28;20132;-54
2021/08/18 03:41:38;;;;;;;0.90;0.90;;;;;;;;;;5011731;28;20038;-53
2021/08/18 03:44:05;;;;;;;2.30;0.95;;;;;;;;;;5001949;28;20534;-53
2021/08/18 03:46:31;;;;;;;4.68;0.80;;;;;;;;;;5005785;28;20092;-54
2021/08/18 03:49:00;;;;;;;2.00;0.80;;;;;;;;;;4997723;28;20779;-53
2021/08/18 03:51:26;;;;;;;2.03;1.08;;;;;;;;;;5007284;28;20044;-53
2021/08/18 03:53:53;;;;;;;0.90;0.90;;;;;;;;;;5007217;28;20045;-54
2021/08/18 03:56:20;;;;;;;4.70;1.15;;;;;;;;;;5000405;28;20049;-52
2021/08/18 03:58:47;;;;;;;2.50;1.13;;;;;;;;;;5005636;28;20042;-53
2021/08/18 04:01:13;;;;;;;1.15;0.98;;;;;;;;;;5011111;28;20115;-53
2021/08/18 04:03:40;;;;;;;1.23;0.70;;;;;;;;;;5005588;28;20046;-53
2021/08/18 04:06:07;;;;;;;1.42;0.77;;;;;;;;;;4999511;28;20100;-53
2021/08/18 04:08:34;;;;;;;1.15;0.85;;;;;;;;;;5012746;28;20364;-53
2021/08/18 04:11:04;;;;;;;0.80;0.80;;;;;;;;;;5010229;28;20045;-53
2021/08/18 04:13:32;;;;;;;1.90;0.90;;;;;;;;;;5011829;28;20053;-54
2021/08/18 04:15:58;;;;;;;2.72;1.45;;;;;;;;;;5012005;28;20116;-54
2021/08/18 04:18:25;;;;;;;3.92;0.90;;;;;;;;;;5009331;28;20042;-54
2021/08/18 04:20:52;;;;;;;0.88;0.88;;;;;;;;;;5003543;28;20041;-53
2021/08/18 04:23:19;;;;;;;2.72;0.90;;;;;;;;;;5009411;28;20726;-53
2021/08/18 04:25:46;;;;;;;6.70;1.65;;;;;;;;;;5009124;28;20026;-53
2021/08/18 04:28:13;;;;;;;2.33;1.02;;;;;;;;;;5012839;28;20124;-53
2021/08/18 04:30:39;;;;;;;1.70;0.90;;;;;;;;;;5010326;28;20037;-53
2021/08/18 04:33:06;;;;;;;1.48;1.02;;;;;;;;;;5010860;28;20112;-54
2021/08/18 04:35:33;;;;;;;1.63;1.00;;;;;;;;;;5006446;28;20034;-54
2021/08/18 04:38:00;;;;;;;1.92;0.90;;;;;;;;;;4996249;28;20038;-53
2021/08/18 04:40:27;;;;;;;1.67;0.93;;;;;;;;;;5011248;28;20041;-53
2021/08/18 04:42:53;;;;;;;2.45;0.85;;;;;;;;;;5010468;28;20037;-54
2021/08/18 04:45:21;;;;;;;1.83;0.88;;;;;;;;;;5007172;28;20418;-53
2021/08/18 04:47:48;;;;;;;1.98;0.90;;;;;;;;;;5007816;28;20081;-53
2021/08/18 04:50:15;;;;;;;0.80;0.80;;;;;;;;;;5009427;28;20104;-53
2021/08/18 04:52:41;;;;;;;0.82;0.80;;;;;;;;;;5010530;28;20672;-54
2021/08/18 04:55:09;;;;;;;0.80;0.80;;;;;;;;;;5005074;28;20046;-54
2021/08/18 04:57:37;;;;;;;2.97;1.35;;;;;;;;;;4992105;28;20050;-54
2021/08/18 05:00:04;;;;;;;0.85;0.80;;;;;;;;;;5002883;28;20125;-53
2021/08/18 05:02:34;;;;;;;1.20;1.20;;;;;;;;;;4998173;28;20429;-53
2021/08/18 05:05:02;;;;;;;0.90;0.90;;;;;;;;;;5010675;28;20042;-54
2021/08/18 05:07:28;;;;;;;0.90;0.90;;;;;;;;;;5005642;28;20070;-53
2021/08/18 05:09:55;;;;;;;1.00;0.90;;;;;;;;;;5010085;28;20382;-53
2021/08/18 05:12:23;;;;;;;1.02;0.93;;;;;;;;;;5002357;28;20459;-54
2021/08/18 05:14:50;;;;;;;1.15;0.80;;;;;;;;;;5000908;28;20041;-53
2021/08/18 05:17:16;;;;;;;1.42;1.33;;;;;;;;;;4997366;28;20038;-53
2021/08/18 05:19:43;;;;;;;0.80;0.80;;;;;;;;;;5007132;28;20074;-54
2021/08/18 05:22:10;;;;;;;2.08;0.85;;;;;;;;;;5011077;28;20430;-54
2021/08/18 05:24:37;;;;;;;0.85;0.80;;;;;;;;;;5006743;28;20445;-52
2021/08/18 05:27:04;;;;;;;1.30;0.70;;;;;;;;;;5009857;28;20478;-56
2021/08/18 05:29:31;;;;;;;1.42;0.73;;;;;;;;;;4994529;28;20475;-55
2021/08/18 05:31:58;;;;;;;3.10;0.73;;;;;;;;;;5007425;28;20045;-56
2021/08/18 05:34:25;;;;;;;1.20;0.77;;;;;;;;;;5009534;28;20045;-55
2021/08/18 05:36:52;;;;;;;2.65;0.73;;;;;;;;;;5000880;28;20046;-55
2021/08/18 05:39:18;;;;;;;2.15;0.82;;;;;;;;;;5003194;28;20041;-56
2021/08/18 05:41:45;;;;;;;0.98;0.80;;;;;;;;;;5007601;28;20044;-55
2021/08/18 05:44:12;;;;;;;1.77;0.70;;;;;;;;;;5005520;28;20455;-56
2021/08/18 05:46:39;;;;;;;0.80;0.80;;;;;;;;;;4994651;28;20046;-56
2021/08/18 05:49:05;;;;;;;3.65;0.70;;;;;;;;;;5010603;28;20042;-55
2021/08/18 05:51:32;;;;;;;1.00;0.70;;;;;;;;;;5008937;28;20073;-55
2021/08/18 05:53:59;;;;;;;1.40;0.75;;;;;;;;;;5009899;28;20046;-56
2021/08/18 05:56:25;;;;;;;3.00;0.80;;;;;;;;;;5003291;28;20137;-55
2021/08/18 05:58:52;;;;;;;5.75;1.15;;;;;;;;;;4995873;28;20042;-58
2021/08/18 06:01:19;;;;;;;2.08;0.90;;;;;;;;;;5009618;28;20046;-58
2021/08/18 06:03:48;;;;;;;2.47;0.80;;;;;;;;;;5010708;28;20127;-58
2021/08/18 06:06:14;;;;;;;0.77;0.77;;;;;;;;;;4995476;28;20034;-55
2021/08/18 06:08:41;;;;;;;3.35;0.77;;;;;;;;;;5004261;28;20042;-55
2021/08/18 06:11:09;;;;;;;1.15;0.80;;;;;;;;;;5006716;28;20512;-55
2021/08/18 06:13:36;;;;;;;1.88;0.70;;;;;;;;;;4997514;28;20125;-56
2021/08/18 06:16:02;;;;;;;4.22;0.80;;;;;;;;;;5004120;28;20041;-55
2021/08/18 06:18:29;;;;;;;3.03;0.70;;;;;;;;;;5008889;28;20042;-55
2021/08/18 06:20:56;;;;;;;0.88;0.70;;;;;;;;;;5003035;28;20045;-55
2021/08/18 06:23:26;;;;;;;0.80;0.80;;;;;;;;;;4999623;28;20099;-55
2021/08/18 06:25:53;;;;;;;1.52;0.70;;;;;;;;;;4995108;28;20045;-56
2021/08/18 06:28:21;;;;;;;0.60;0.60;;;;;;;;;;5007535;28;20063;-55
2021/08/18 06:30:47;;;;;;;0.93;0.93;;;;;;;;;;5008661;28;20713;-55
2021/08/18 06:33:14;;;;;;;0.80;0.80;;;;;;;;;;5001341;28;20069;-54
2021/08/18 06:35:41;;;;;;;2.60;0.60;;;;;;;;;;5000693;28;20034;-55
2021/08/18 06:38:08;;;;;;;2.15;1.20;;;;;;;;;;4999454;28;20111;-55
2021/08/18 06:40:35;;;;;;;0.60;0.60;;;;;;;;;;5007625;28;20041;-55
2021/08/18 06:43:02;;;;;;;0.65;0.65;;;;;;;;;;5007131;28;20056;-55
2021/08/18 06:45:29;;;;;;;0.60;0.60;;;;;;;;;;5000381;28;20483;-55
2021/08/18 06:47:56;;;;;;;1.60;0.70;;;;;;;;;;5001022;28;20125;-55
2021/08/18 06:50:23;;;;;;;0.70;0.70;;;;;;;;;;5008382;28;20038;-55
2021/08/18 06:52:49;;;;;;;1.73;0.70;;;;;;;;;;5004541;28;20039;-55
2021/08/18 06:55:17;;;;;;;1.98;0.65;;;;;;;;;;5001073;28;20050;-55
2021/08/18 06:57:43;;;;;;;0.82;0.65;;;;;;;;;;5002652;28;20038;-55
2021/08/18 07:00:10;;;;;;;0.60;0.60;;;;;;;;;;5003138;28;20042;-55
2021/08/18 07:02:41;;;;;;;1.70;0.63;;;;;;;;;;4992229;28;20378;-56
2021/08/18 07:05:08;;;;;;;1.00;0.60;;;;;;;;;;5007367;28;20088;-55
2021/08/18 07:07:35;;;;;;;0.60;0.60;;;;;;;;;;5005658;28;20439;-55
2021/08/18 07:10:02;;;;;;;0.85;0.70;;;;;;;;;;5015854;28;20038;-56
2021/08/18 07:12:29;;;;;;;0.73;0.60;;;;;;;;;;5015128;28;20042;-55
2021/08/18 07:14:56;;;;;;;3.65;0.68;;;;;;;;;;5014860;28;20034;-56
2021/08/18 07:17:23;;;;;;;0.88;0.60;;;;;;;;;;5008521;28;20038;-54
2021/08/18 07:19:50;;;;;;;0.60;0.60;;;;;;;;;;5006460;28;20038;-56
2021/08/18 07:22:16;;;;;;;0.68;0.60;;;;;;;;;;5016085;28;20050;-56
2021/08/18 07:24:43;;;;;;;0.50;0.50;;;;;;;;;;5013683;28;20128;-55
2021/08/18 07:27:10;;;;;;;1.50;0.60;;;;;;;;;;4998033;28;20609;-55
2021/08/18 07:29:37;;;;;;;0.75;0.63;;;;;;;;;;5008912;28;20581;-56
2021/08/18 07:32:03;;;;;;;2.15;0.50;;;;;;;;;;5004727;28;20033;-55
2021/08/18 07:34:32;;;;;;;1.23;0.60;;;;;;;;;;5016166;28;20588;-56
2021/08/18 07:37:00;;;;;;;0.98;0.70;;;;;;;;;;5013842;28;20080;-56
2021/08/18 07:39:27;;;;;;;0.50;0.50;;;;;;;;;;5008593;28;20069;-55
2021/08/18 07:41:53;;;;;;;0.77;0.60;;;;;;;;;;5011169;28;20062;-56
2021/08/18 07:44:20;;;;;;;0.50;0.50;;;;;;;;;;5008716;28;20113;-56
2021/08/18 07:46:48;;;;;;;0.65;0.65;;;;;;;;;;4998219;28;20049;-55
2021/08/18 07:49:15;;;;;;;1.83;0.60;;;;;;;;;;5012707;28;20109;-56
2021/08/18 07:51:41;;;;;;;1.15;1.15;;;;;;;;;;5014396;28;20033;-56
2021/08/18 07:54:08;;;;;;;0.52;0.52;;;;;;;;;;5015148;28;20050;-55
2021/08/18 07:56:35;;;;;;;1.77;0.60;;;;;;;;;;5014888;28;20077;-55
2021/08/18 07:59:02;;;;;;;2.15;0.60;;;;;;;;;;5011266;28;20042;-56
2021/08/18 08:01:36;;;;;;;2.17;0.63;;;;;;;;;;5013215;28;20042;-55
2021/08/18 08:04:03;;;;;;;0.75;0.57;;;;;;;;;;5013915;28;20497;-56
2021/08/18 08:06:30;;;;;;;1.02;0.60;;;;;;;;;;5002448;28;20391;-56
2021/08/18 08:08:57;;;;;;;0.95;0.65;;;;;;;;;;5009807;28;20038;-55
2021/08/18 08:11:23;;;;;;;0.70;0.70;;;;;;;;;;5014419;28;20104;-56
2021/08/18 08:13:50;;;;;;;1.27;0.63;;;;;;;;;;5008741;28;20117;-56
2021/08/18 08:16:17;;;;;;;1.75;0.80;;;;;;;;;;5004010;28;20061;-56
2021/08/18 08:18:44;;;;;;;1.10;0.50;;;;;;;;;;5010421;28;20034;-56
2021/08/18 08:21:11;;;;;;;0.65;0.50;;;;;;;;;;5008297;28;20042;-55
2021/08/18 08:23:38;;;;;;;0.50;0.50;;;;;;;;;;4995885;28;20042;-56
2021/08/18 08:26:05;;;;;;;0.95;0.95;;;;;;;;;;5012838;28;20042;-56
2021/08/18 08:28:31;;;;;;;1.70;0.50;;;;;;;;;;5003643;28;20034;-56
2021/08/18 08:30:58;;;;;;;2.75;0.52;;;;;;;;;;5009598;28;20037;-56
2021/08/18 08:33:25;;;;;;;1.08;0.50;;;;;;;;;;5010360;28;20757;-56
2021/08/18 08:35:52;;;;;;;0.50;0.50;;;;;;;;;;5008241;28;20046;-56
2021/08/18 08:38:19;;;;;;;0.77;0.60;;;;;;;;;;5003245;28;20038;-56
2021/08/18 08:40:46;;;;;;;0.40;0.40;;;;;;;;;;5007083;28;20037;-57
2021/08/18 08:43:14;;;;;;;0.40;0.40;;;;;;;;;;4996741;28;20560;-56
2021/08/18 08:45:42;;;;;;;0.50;0.50;;;;;;;;;;5006850;28;20045;-55
2021/08/18 08:48:09;;;;;;;1.17;0.50;;;;;;;;;;4996366;28;20046;-57
2021/08/18 08:50:36;;;;;;;0.40;0.40;;;;;;;;;;4999652;28;20588;-57
2021/08/18 08:53:03;;;;;;;0.43;0.40;;;;;;;;;;5002632;28;20561;-56
2021/08/18 08:55:29;;;;;;;4.90;0.50;;;;;;;;;;4999052;28;20045;-57
2021/08/18 08:57:57;;;;;;;0.40;0.40;;;;;;;;;;5005811;28;20066;-56
2021/08/18 09:00:24;;;;;;;2.00;0.40;;;;;;;;;;5008839;28;20478;-57
2021/08/18 09:03:10;;;;;;;2.50;0.50;;;;;;;;;;4999124;28;20126;-56
2021/08/18 09:05:37;;;;;;;0.82;0.45;;;;;;;;;;5004723;28;20521;-57
2021/08/18 09:08:08;;;;;;;0.60;0.40;;;;;;;;;;4994932;28;20054;-56
2021/08/18 09:10:35;;;;;;;0.40;0.40;;;;;;;;;;5011103;28;20498;-56
2021/08/18 09:13:09;;;;;;;0.73;0.40;;;;;;;;;;5004292;28;20482;-56
2021/08/18 09:15:36;;;;;;;0.40;0.40;;;;;;;;;;5005736;28;20052;-57
2021/08/18 09:18:03;;;;;;;3.15;0.40;;;;;;;;;;5004299;28;20375;-57
2021/08/18 09:20:31;;;;;;;1.95;0.40;;;;;;;;;;5004861;28;20529;-56
2021/08/18 09:22:59;;;;;;;0.40;0.40;;;;;;;;;;5010430;28;20038;-57
2021/08/18 09:25:27;;;;;;;1.55;0.40;;;;;;;;;;5006051;28;20050;-57
2021/08/18 09:27:53;;;;;;;0.40;0.40;;;;;;;;;;5003258;28;20577;-57
2021/08/18 09:30:25;;;;;;;0.63;0.30;;;;;;;;;;5010634;28;20518;-57
2021/08/18 09:32:53;;;;;;;2.92;0.40;;;;;;;;;;5008450;28;20046;-57
2021/08/18 09:35:21;;;;;;;3.50;0.45;;;;;;;;;;5021482;28;20375;-56
2021/08/18 09:37:58;;;;;;;0.50;0.40;;;;;;;;;;5013445;28;20118;-57
2021/08/18 09:40:30;;;;;;;0.30;0.30;;;;;;;;;;5009834;28;20040;-57
2021/08/18 09:43:12;;;;;;;0.52;0.40;;;;;;;;;;5007923;28;20042;-57
2021/08/18 09:45:40;;;;;;;1.65;0.40;;;;;;;;;;5004064;28;20378;-58
2021/08/18 09:48:11;;;;;;;1.10;0.30;;;;;;;;;;5009357;28;20714;-57
2021/08/18 09:50:48;;;;;;;0.40;0.40;;;;;;;;;;5006663;28;20045;-58
2021/08/18 09:53:19;;;;;;;0.40;0.40;;;;;;;;;;4999206;28;20117;-57
2021/08/18 09:55:54;;;;;;;0.47;0.30;;;;;;;;;;5013950;28;20558;-57
2021/08/18 09:58:22;;;;;;;1.48;0.40;;;;;;;;;;5006881;28;20048;-57
2021/08/18 10:00:49;;;;;;;0.57;0.40;;;;;;;;;;4997791;28;20043;-57
2021/08/18 10:03:17;;;;;;;1.20;0.30;;;;;;;;;;5010338;28;20609;-57
2021/08/18 10:05:44;;;;;;;0.40;0.40;;;;;;;;;;5008640;28;20402;-58
2021/08/18 10:08:12;;;;;;;0.82;0.52;;;;;;;;;;4998411;28;20476;-57
2021/08/18 10:10:39;;;;;;;1.40;0.40;;;;;;;;;;5008040;28;20045;-57
2021/08/18 10:13:08;;;;;;;0.40;0.40;;;;;;;;;;5005512;28;20050;-57
2021/08/18 10:15:35;;;;;;;0.32;0.30;;;;;;;;;;5008492;28;20402;-57
2021/08/18 10:18:02;;;;;;;0.30;0.30;;;;;;;;;;5008827;28;20050;-57
2021/08/18 10:20:29;;;;;;;1.05;0.30;;;;;;;;;;5002618;28;20473;-57
2021/08/18 10:23:13;;;;;;;0.35;0.35;;;;;;;;;;5004653;28;20541;-57
2021/08/18 10:25:45;;;;;;;0.40;0.40;;;;;;;;;;4996599;28;20037;-57
2021/08/18 10:28:13;;;;;;;1.38;0.70;;;;;;;;;;4997057;28;20096;-58
2021/08/18 10:30:50;;;;;;;1.38;0.40;;;;;;;;;;5007294;28;20132;-57
2021/08/18 10:33:36;;;;;;;0.30;0.30;;;;;;;;;;5008180;28;20037;-57
2021/08/18 10:36:03;;;;;;;0.93;0.30;;;;;;;;;;5007936;28;20054;-57
2021/08/18 10:38:32;;;;;;;0.32;0.32;;;;;;;;;;5007520;28;20141;-57
2021/08/18 10:41:00;;;;;;;1.15;0.30;;;;;;;;;;5001264;28;20125;-58
2021/08/18 10:43:45;;;;;;;1.10;0.30;;;;;;;;;;5007489;28;20052;-57
2021/08/18 10:46:12;;;;;;;0.80;0.30;;;;;;;;;;4997838;28;20046;-58
2021/08/18 10:49:02;;;;;;;0.30;0.30;;;;;;;;;;5009101;28;20050;-57
2021/08/18 10:51:38;;;;;;;0.30;0.30;;;;;;;;;;5005980;28;20056;-57
2021/08/18 10:54:24;;;;;;;0.88;0.40;;;;;;;;;;4997536;28;20438;-57
2021/08/18 10:56:57;;;;;;;0.30;0.30;;;;;;;;;;5003173;28;20030;-57
2021/08/18 10:59:35;;;;;;;1.30;0.40;;;;;;;;;;5005640;28;20045;-58
2021/08/18 11:02:02;;;;;;;0.30;0.30;;;;;;;;;;5005486;28;20467;-56
2021/08/18 11:04:42;;;;;;;0.30;0.30;;;;;;;;;;5008080;28;20056;-57
2021/08/18 11:07:09;;;;;;;1.40;0.30;;;;;;;;;;5005825;28;20044;-58
2021/08/18 11:09:48;;;;;;;0.40;0.40;;;;;;;;;;5000298;28;20045;-58
2021/08/18 11:12:34;;;;;;;0.57;0.30;;;;;;;;;;5006860;28;20042;-57
2021/08/18 11:15:01;;;;;;;0.38;0.38;;;;;;;;;;5007782;28;20095;-58
2021/08/18 11:17:27;;;;;;;2.47;0.30;;;;;;;;;;4991095;28;20064;-57
2021/08/18 11:19:54;;;;;;;0.95;0.30;;;;;;;;;;5006028;28;20038;-57
2021/08/18 11:22:22;;;;;;;2.22;0.30;;;;;;;;;;4998839;28;20479;-57
2021/08/18 11:24:49;;;;;;;0.30;0.30;;;;;;;;;;5008130;28;20038;-57
2021/08/18 11:27:16;;;;;;;0.57;0.30;;;;;;;;;;4995621;28;20057;-58
2021/08/18 11:29:43;;;;;;;0.30;0.30;;;;;;;;;;4998958;28;20046;-58
2021/08/18 11:32:10;;;;;;;0.35;0.35;;;;;;;;;;5001211;28;20083;-58
2021/08/18 11:34:39;;;;;;;0.30;0.30;;;;;;;;;;5009326;28;20073;-58
2021/08/18 11:37:07;;;;;;;2.28;0.40;;;;;;;;;;5010082;28;20046;-58
2021/08/18 11:39:36;;;;;;;1.10;0.30;;;;;;;;;;5006870;28;20045;-53
2021/08/18 11:42:16;;;;;;;0.32;0.30;;;;;;;;;;5009598;28;20033;-53
2021/08/18 11:44:43;;;;;;;1.13;0.30;;;;;;;;;;5007536;28;20038;-53
2021/08/18 11:47:14;;;;;;;0.55;0.30;;;;;;;;;;5008051;28;20456;-53
2021/08/18 11:49:45;;;;;;;0.32;0.30;;;;;;;;;;5008053;28;20054;-53
2021/08/18 11:52:16;;;;;;;0.30;0.30;;;;;;;;;;5009626;28;20124;-53
2021/08/18 11:55:03;;;;;;;0.80;0.32;;;;;;;;;;5003636;28;20529;-52
2021/08/18 11:57:30;;;;;;;1.17;0.30;;;;;;;;;;5007323;28;20050;-53
2021/08/18 12:00:01;;;;;;;4.43;0.30;;;;;;;;;;5003464;28;20042;-53
2021/08/18 12:02:29;;;;;;;1.27;0.30;;;;;;;;;;5002442;28;20036;-53
2021/08/18 12:05:00;;;;;;;0.30;0.30;;;;;;;;;;5006738;28;20478;-51
2021/08/18 12:07:28;;;;;;;0.30;0.30;;;;;;;;;;5003163;28;20417;-52
2021/08/18 12:10:26;;;;;;;1.10;0.40;;;;;;;;;;5005309;28;20037;-52
2021/08/18 12:13:06;;;;;;;0.85;0.30;;;;;;;;;;5009757;28;20411;-52
2021/08/18 12:15:34;;;;;;;1.08;0.38;;;;;;;;;;5009214;28;20580;-52
2021/08/18 12:18:01;;;;;;;0.40;0.30;;;;;;;;;;5009903;28;20065;-53
2021/08/18 12:20:30;;;;;;;1.30;0.40;;;;;;;;;;5008291;28;20256;-52
2021/08/18 12:22:57;;;;;;;0.70;0.32;;;;;;;;;;5010632;28;20455;-53
2021/08/18 12:25:29;;;;;;;0.35;0.30;;;;;;;;;;5009579;28;20050;-53
2021/08/18 12:28:12;;;;;;;0.35;0.35;;;;;;;;;;5008294;28;20033;-53
2021/08/18 12:30:57;;;;;;;0.30;0.30;;;;;;;;;;5009133;28;20049;-53
2021/08/18 12:33:24;;;;;;;0.40;0.40;;;;;;;;;;5007572;28;20057;-53
2021/08/18 12:36:03;;;;;;;0.40;0.30;;;;;;;;;;5009389;28;20120;-52
2021/08/18 12:38:30;;;;;;;1.10;0.30;;;;;;;;;;5018165;28;20052;-52
2021/08/18 12:41:03;;;;;;;2.58;0.40;;;;;;;;;;5008170;28;20104;-53
2021/08/18 12:43:30;;;;;;;0.50;0.30;;;;;;;;;;5008410;28;20054;-53
2021/08/18 12:45:57;;;;;;;0.40;0.30;;;;;;;;;;5009046;28;20046;-53
2021/08/18 12:48:24;;;;;;;2.28;0.30;;;;;;;;;;5011173;28;20054;-52
2021/08/18 12:50:51;;;;;;;0.30;0.30;;;;;;;;;;5011030;28;20104;-43
2021/08/18 12:53:18;;;;;;;1.40;0.40;;;;;;;;;;5010253;28;20096;-42
2021/08/18 12:55:45;;;;;;;1.45;0.50;;;;;;;;;;5005638;28;20092;-45
2021/08/18 12:58:19;;;;;;;0.30;0.30;;;;;;;;;;5005027;28;20038;-43
2021/08/18 13:00:46;;;;;;;0.40;0.40;;;;;;;;;;4996712;28;20431;-42
2021/08/18 13:03:13;;;;;;;1.00;0.38;;;;;;;;;;5011590;28;20425;-42
2021/08/18 13:05:40;;;;;;;0.40;0.40;;;;;;;;;;5009441;28;20077;-43
2021/08/18 13:08:07;;;;;;;0.38;0.32;;;;;;;;;;5007755;28;20043;-42
2021/08/18 13:10:33;;;;;;;0.40;0.40;;;;;;;;;;5006094;28;20049;-43
2021/08/18 13:13:01;;;;;;;0.40;0.30;;;;;;;;;;5009988;28;20034;-42
2021/08/18 13:15:27;;;;;;;0.60;0.60;;;;;;;;;;5011553;28;20073;-43
2021/08/18 13:17:55;;;;;;;1.92;0.40;;;;;;;;;;5010405;28;20053;-44
2021/08/18 13:20:22;;;;;;;0.47;0.40;;;;;;;;;;5007668;28;20117;-43
2021/08/18 13:22:48;;;;;;;0.40;0.40;;;;;;;;;;5003584;28;20062;-42
2021/08/18 13:25:16;;;;;;;0.35;0.35;;;;;;;;;;5010302;28;20048;-43
2021/08/18 13:27:43;;;;;;;0.40;0.35;;;;;;;;;;5008029;28;20042;-46
2021/08/18 13:30:10;;;;;;;1.85;0.93;;;;;;;;;;5009953;28;20042;-44
2021/08/18 13:32:37;;;;;;;0.95;0.38;;;;;;;;;;5009584;28;20051;-43
2021/08/18 13:35:04;;;;;;;0.63;0.30;;;;;;;;;;5000869;28;20042;-43
2021/08/18 13:37:31;;;;;;;0.40;0.40;;;;;;;;;;5003133;28;20046;-43
2021/08/18 13:39:58;;;;;;;1.65;0.40;;;;;;;;;;5011999;28;20062;-43
2021/08/18 13:42:25;;;;;;;0.38;0.35;;;;;;;;;;5007975;28;20415;-46
2021/08/18 13:44:51;;;;;;;2.13;0.40;;;;;;;;;;5007732;28;20112;-42
2021/08/18 13:47:18;;;;;;;0.40;0.40;;;;;;;;;;5011304;28;20120;-44
2021/08/18 13:49:45;;;;;;;0.40;0.38;;;;;;;;;;5009389;28;20431;-43
2021/08/18 13:52:12;;;;;;;0.40;0.30;;;;;;;;;;4996462;28;20045;-42
2021/08/18 13:54:39;;;;;;;0.90;0.40;;;;;;;;;;5010067;28;20049;-43
2021/08/18 13:57:07;;;;;;;0.40;0.40;;;;;;;;;;5009356;28;20132;-43
2021/08/18 13:59:34;;;;;;;0.40;0.30;;;;;;;;;;4999278;28;20039;-42
2021/08/18 14:02:01;;;;;;;0.32;0.32;;;;;;;;;;5004947;28;20034;-43
2021/08/18 14:04:28;;;;;;;0.73;0.40;;;;;;;;;;4992716;28;20121;-43
2021/08/18 14:06:55;;;;;;;0.60;0.40;;;;;;;;;;5002636;28;20042;-44
2021/08/18 14:09:22;;;;;;;0.40;0.40;;;;;;;;;;5004080;28;20124;-43
2021/08/18 14:11:49;;;;;;;0.40;0.40;;;;;;;;;;5003955;28;20077;-42
2021/08/18 14:14:26;;;;;;;0.40;0.40;;;;;;;;;;5006869;28;20038;-43
2021/08/18 14:16:52;;;;;;;1.15;0.30;;;;;;;;;;4994422;28;20038;-43
2021/08/18 14:19:19;;;;;;;0.40;0.40;;;;;;;;;;5009403;28;20034;-43
2021/08/18 14:21:46;;;;;;;0.40;0.40;;;;;;;;;;5009363;28;20046;-44
2021/08/18 14:24:13;;;;;;;0.40;0.40;;;;;;;;;;4998971;28;20038;-42
2021/08/18 14:26:40;;;;;;;0.40;0.40;;;;;;;;;;5008415;28;20100;-42
2021/08/18 14:29:07;;;;;;;1.05;0.30;;;;;;;;;;5007528;28;20052;-44
2021/08/18 14:31:33;;;;;;;0.80;0.40;;;;;;;;;;4999595;28;20491;-42
2021/08/18 14:34:00;;;;;;;0.38;0.38;;;;;;;;;;5000879;28;20041;-42
2021/08/18 14:36:27;;;;;;;0.40;0.40;;;;;;;;;;4993142;28;20582;-43
2021/08/18 14:38:54;;;;;;;0.68;0.35;;;;;;;;;;5007802;28;20049;-44
2021/08/18 14:41:21;;;;;;;4.47;0.75;;;;;;;;;;5001285;28;20458;-43
2021/08/18 14:43:48;;;;;;;0.75;0.38;;;;;;;;;;5007532;28;20046;-42
2021/08/18 14:46:15;;;;;;;1.25;0.45;;;;;;;;;;5009316;28;20037;-43
2021/08/18 14:48:41;;;;;;;2.25;0.38;;;;;;;;;;4992929;28;20157;-44